Time;durP1;ratioP1;P1;durP2;ratioP2;P2;SDS_P1;SDS_P2;PMS_P1;PMS_P2;Temp;Humidity;BMP_temperature;BMP_pressure;BME280_temperature;BME280_humidity;BME280_pressure;Samples;Min_cycle;Max_cycle;Signal;HPM_P1;HPM_P2
2023/04/02 00:01:03;;;;;;;15.38;8.55;;;;;;;6.01;100.00;101268.09;6188559;23;20072;-76
2023/04/02 00:03:52;;;;;;;14.93;8.82;;;;;;;6.00;100.00;101273.78;6187507;23;20363;-76
2023/04/02 00:06:31;;;;;;;11.70;8.63;;;;;;;5.98;100.00;101279.50;6187548;23;20052;-76
2023/04/02 00:09:20;;;;;;;10.60;8.32;;;;;;;5.96;100.00;101273.84;6187787;23;20022;-76
2023/04/02 00:11:49;;;;;;;12.02;8.57;;;;;;;5.94;100.00;101283.31;6188482;23;20391;-77
2023/04/02 00:14:20;;;;;;;10.85;8.23;;;;;;;5.95;100.00;101279.53;6187773;23;20014;-76
2023/04/02 00:16:47;;;;;;;10.57;8.32;;;;;;;5.95;100.00;101290.09;6188279;23;20029;-76
2023/04/02 00:19:21;;;;;;;11.15;8.35;;;;;;;5.95;100.00;101293.50;6187040;23;20014;-76
2023/04/02 00:21:50;;;;;;;10.07;8.23;;;;;;;5.92;100.00;101294.28;6188284;23;20033;-76
2023/04/02 00:24:19;;;;;;;12.60;8.68;;;;;;;5.90;100.00;101291.28;6187427;23;20072;-76
2023/04/02 00:26:51;;;;;;;14.38;8.60;;;;;;;5.88;100.00;101298.81;6190284;23;20028;-76
2023/04/02 00:29:18;;;;;;;;;;;;;;;5.89;100.00;101304.88;6189640;23;20061;-76
2023/04/02 00:31:50;;;;;;;14.75;8.50;;;;;;;5.86;100.00;101309.03;6189601;23;19920;-76
2023/04/02 00:34:29;;;;;;;11.68;8.18;;;;;;;5.87;100.00;101307.13;6187340;23;20026;-76
2023/04/02 00:36:57;;;;;;;12.25;8.68;;;;;;;5.86;100.00;101316.97;6188650;23;20091;-76
2023/04/02 00:39:27;;;;;;;9.23;7.95;;;;;;;5.86;100.00;101316.97;6187081;23;20017;-76
2023/04/02 00:42:05;;;;;;;13.00;8.80;;;;;;;5.85;100.00;101325.28;6188969;23;20084;-76
2023/04/02 00:44:36;;;;;;;13.18;8.57;;;;;;;5.83;100.00;101325.66;6187549;23;20422;-76
2023/04/02 00:47:13;;;;;;;9.68;8.20;;;;;;;5.82;100.00;101339.28;6186843;23;20098;-76
2023/04/02 00:49:40;;;;;;;12.68;8.02;;;;;;;5.79;100.00;101340.81;6187930;23;20020;-76
2023/04/02 00:52:21;;;;;;;12.30;8.80;;;;;;;5.76;100.00;101343.47;6189426;23;20037;-76
2023/04/02 00:54:51;;;;;;;12.65;8.25;;;;;;;5.74;100.00;101351.78;6189528;23;20022;-75
2023/04/02 00:57:24;;;;;;;;;;;;;;;5.73;100.00;101352.19;6190516;23;20399;-76
2023/04/02 00:59:54;;;;;;;13.38;7.78;;;;;;;5.70;100.00;101351.81;6189396;23;19920;-76
2023/04/02 01:02:28;;;;;;;13.23;8.20;;;;;;;5.69;100.00;101360.88;6188630;23;20088;-75
2023/04/02 01:05:19;;;;;;;14.95;8.65;;;;;;;5.68;99.87;101371.84;6189096;23;20143;-76
2023/04/02 01:07:46;;;;;;;10.45;7.55;;;;;;;5.66;99.72;101374.13;6189443;23;20079;-75
2023/04/02 01:10:28;;;;;;;13.55;8.48;;;;;;;5.64;99.78;101379.03;6188793;23;20014;-75
2023/04/02 01:13:03;;;;;;;10.73;8.27;;;;;;;5.64;99.88;101385.06;6189252;23;20096;-75
2023/04/02 01:15:38;;;;;;;13.02;8.50;;;;;;;5.63;99.53;101383.56;6188779;23;20017;-75
2023/04/02 01:18:40;;;;;;;9.95;8.10;;;;;;;5.61;99.29;101399.06;6187328;23;20061;-75
2023/04/02 01:21:52;;;;;;;10.73;7.70;;;;;;;5.61;99.30;101396.41;6153717;23;20081;-75
2023/04/02 01:24:23;;;;;;;10.65;8.25;;;;;;;5.61;99.42;101404.34;6165103;23;20109;-75
2023/04/02 01:27:00;;;;;;;10.82;8.07;;;;;;;5.59;99.50;101398.72;6189048;23;20422;-75
2023/04/02 01:29:37;;;;;;;10.50;8.00;;;;;;;5.56;98.95;101404.78;6212556;23;20029;-75
2023/04/02 01:32:08;;;;;;;14.35;8.10;;;;;;;5.53;99.28;101405.56;6211912;23;20093;-75
2023/04/02 01:34:35;;;;;;;7.30;6.03;;;;;;;5.53;98.40;101418.00;6187354;23;20325;-75
2023/04/02 01:37:23;;;;;;;9.85;7.63;;;;;;;5.49;98.08;101414.63;6186859;23;20060;-75
2023/04/02 01:40:17;;;;;;;9.80;8.57;;;;;;;5.47;98.46;101417.66;6189149;23;20422;-75
2023/04/02 01:43:02;;;;;;;13.98;8.60;;;;;;;5.47;98.30;101419.56;6187304;23;20359;-75
2023/04/02 01:45:29;;;;;;;13.82;7.88;;;;;;;5.46;98.41;101421.44;6188525;23;20014;-75
2023/04/02 01:47:57;;;;;;;10.57;7.97;;;;;;;5.50;98.80;101431.97;6188434;23;20448;-75
2023/04/02 01:50:36;;;;;;;9.43;7.15;;;;;;;5.48;98.57;101435.00;6186895;23;20121;-75
2023/04/02 01:53:10;;;;;;;9.90;7.38;;;;;;;5.44;98.06;101444.84;6212511;23;20044;-75
2023/04/02 01:55:37;;;;;;;8.65;6.82;;;;;;;5.41;97.24;101445.59;6189496;23;20028;-75
2023/04/02 01:58:04;;;;;;;9.25;8.30;;;;;;;5.40;97.43;101453.91;6186933;23;20029;-75
2023/04/02 02:00:33;;;;;;;8.70;7.28;;;;;;;5.37;96.24;101458.06;6188527;23;20028;-75
2023/04/02 02:03:01;;;;;;;8.50;7.18;;;;;;;5.31;96.38;101457.72;6188632;23;20455;-75
2023/04/02 02:05:28;;;;;;;9.05;7.07;;;;;;;5.31;96.59;101470.94;6187553;23;20027;-74
2023/04/02 02:07:57;;;;;;;11.27;7.68;;;;;;;5.33;96.97;101476.56;6187149;23;20014;-75
2023/04/02 02:10:33;;;;;;;14.52;7.75;;;;;;;5.33;97.28;101473.19;6211943;23;20033;-75
2023/04/02 02:13:00;;;;;;;12.30;7.63;;;;;;;5.31;97.40;101484.13;6188608;23;20013;-75
2023/04/02 02:15:30;;;;;;;15.00;7.93;;;;;;;5.31;97.58;101478.09;6188059;23;20088;-75
2023/04/02 02:18:01;;;;;;;11.68;7.07;;;;;;;5.29;97.62;101483.00;6188394;23;20106;-75
2023/04/02 02:20:29;;;;;;;10.45;8.27;;;;;;;5.25;97.65;101496.22;6188841;23;20029;-75
2023/04/02 02:22:57;;;;;;;10.57;8.18;;;;;;;5.21;97.47;101492.09;6162157;23;20022;-75
2023/04/02 02:25:29;;;;;;;10.77;7.78;;;;;;;5.16;97.29;101503.81;6188791;23;20418;-75
2023/04/02 02:27:56;;;;;;;9.13;6.78;;;;;;;5.12;97.36;101497.81;6188144;23;20021;-75
2023/04/02 02:30:47;;;;;;;9.25;6.65;;;;;;;5.07;97.18;101508.00;6186822;23;20104;-75
2023/04/02 02:33:25;;;;;;;10.40;7.05;;;;;;;5.01;96.86;101508.38;6188513;23;20025;-75
2023/04/02 02:36:04;;;;;;;8.65;7.15;;;;;;;4.97;96.85;101520.84;6187315;23;20044;-76
2023/04/02 02:38:43;;;;;;;9.10;6.82;;;;;;;4.96;96.89;101518.59;6187389;23;20450;-74
2023/04/02 02:41:20;;;;;;;11.20;6.82;;;;;;;4.91;96.94;101529.53;6186668;23;20025;-74
2023/04/02 02:44:00;;;;;;;9.90;7.05;;;;;;;4.90;97.23;101534.03;6188234;23;20021;-74
2023/04/02 02:46:29;;;;;;;10.45;6.93;;;;;;;4.87;96.66;101523.50;6186947;23;20024;-75
2023/04/02 02:48:58;;;;;;;11.43;6.85;;;;;;;4.84;97.07;101532.94;6186373;23;20025;-74
2023/04/02 02:51:29;;;;;;;9.18;7.00;;;;;;;4.82;96.92;101543.09;6186724;23;20022;-74
2023/04/02 02:54:03;;;;;;;13.63;7.10;;;;;;;4.81;97.02;101549.50;6188458;23;20013;-74
2023/04/02 02:56:36;;;;;;;7.35;6.65;;;;;;;4.77;97.21;101548.78;6187051;23;20017;-74
2023/04/02 02:59:07;;;;;;;9.05;7.10;;;;;;;4.73;97.07;101553.31;6185913;23;20651;-75
2023/04/02 03:01:38;;;;;;;10.40;6.88;;;;;;;4.71;97.00;101565.38;6187278;23;20032;-76
2023/04/02 03:04:05;;;;;;;10.20;6.97;;;;;;;4.68;97.08;101569.53;6186482;23;20022;-77
2023/04/02 03:06:32;;;;;;;10.40;6.47;;;;;;;4.68;97.00;101574.78;6186615;23;20077;-76
2023/04/02 03:09:16;;;;;;;12.43;7.15;;;;;;;4.68;96.93;101574.78;6211963;23;20045;-75
2023/04/02 03:12:00;;;;;;;9.18;6.55;;;;;;;4.65;96.80;101586.09;6186821;23;20060;-76
2023/04/02 03:14:41;;;;;;;9.32;7.07;;;;;;;4.63;96.90;101588.34;6186925;23;20100;-75
2023/04/02 03:17:37;;;;;;;7.50;6.80;;;;;;;4.61;96.90;101595.91;6186334;23;20025;-75
2023/04/02 03:20:36;;;;;;;12.77;6.40;;;;;;;4.58;96.51;101612.47;6168578;23;20470;-75
2023/04/02 03:23:17;;;;;;;9.48;6.85;;;;;;;4.55;96.72;101607.94;6165610;23;20021;-75
2023/04/02 03:26:00;;;;;;;8.32;6.63;;;;;;;4.55;96.24;101621.13;6162871;23;20017;-75
2023/04/02 03:28:36;;;;;;;9.37;7.00;;;;;;;4.52;96.33;101620.00;6188919;23;20467;-75
2023/04/02 03:31:21;;;;;;;8.35;6.70;;;;;;;4.54;96.70;101627.53;6186216;23;20425;-75
2023/04/02 03:34:00;;;;;;;7.80;6.85;;;;;;;4.50;96.35;101635.44;6186735;23;20026;-75
2023/04/02 03:36:42;;;;;;;10.23;6.75;;;;;;;4.50;96.17;101642.59;6186683;23;20122;-75
2023/04/02 03:39:19;;;;;;;9.43;6.43;;;;;;;4.45;95.88;101649.00;6186321;23;20053;-75
2023/04/02 03:41:57;;;;;;;10.70;6.70;;;;;;;4.42;95.44;101651.63;6186187;23;20475;-74
2023/04/02 03:44:45;;;;;;;8.07;6.68;;;;;;;4.41;95.15;101658.03;6186772;23;20026;-75
2023/04/02 03:47:24;;;;;;;9.98;7.38;;;;;;;4.40;94.96;101670.44;6211300;23;20022;-75
2023/04/02 03:50:00;;;;;;;10.07;7.45;;;;;;;4.39;95.21;101676.13;6186674;23;20039;-75
2023/04/02 03:52:29;;;;;;;9.45;6.72;;;;;;;4.39;95.11;101681.41;6186813;23;20025;-76
2023/04/02 03:55:01;;;;;;;9.18;6.90;;;;;;;4.37;94.64;101681.75;6185803;23;20323;-75
2023/04/02 03:57:39;;;;;;;8.65;6.88;;;;;;;4.36;94.68;101680.25;6187718;23;20024;-75
2023/04/02 04:00:16;;;;;;;11.55;6.55;;;;;;;4.40;94.90;101690.81;6190658;23;20021;-75
2023/04/02 04:02:51;;;;;;;7.97;6.88;;;;;;;4.39;94.53;101694.56;6189842;23;20044;-75
2023/04/02 04:05:25;;;;;;;9.13;6.70;;;;;;;4.40;94.41;101711.91;6189544;23;20022;-75
2023/04/02 04:08:00;;;;;;;7.78;6.45;;;;;;;4.38;94.88;101707.00;6189536;23;20017;-75
2023/04/02 04:10:29;;;;;;;7.70;6.38;;;;;;;4.38;94.56;101709.63;6189350;23;20493;-75
2023/04/02 04:13:05;;;;;;;10.05;6.63;;;;;;;4.35;94.32;101713.78;6191348;23;20045;-75
2023/04/02 04:15:47;;;;;;;8.85;6.97;;;;;;;4.36;94.07;101725.06;6191500;23;20026;-75
2023/04/02 04:18:28;;;;;;;12.60;7.03;;;;;;;4.33;93.82;101729.22;6191160;23;20017;-75
2023/04/02 04:21:00;;;;;;;7.43;5.97;;;;;;;4.31;93.28;101738.63;6191394;23;20021;-75
2023/04/02 04:23:39;;;;;;;10.40;6.47;;;;;;;4.28;92.68;101747.25;6190290;23;20068;-75
2023/04/02 04:26:24;;;;;;;8.50;6.80;;;;;;;4.22;92.39;101746.84;6188612;23;20550;-75
2023/04/02 04:29:30;;;;;;;8.35;6.63;;;;;;;4.19;92.02;101755.50;6189240;23;20096;-75
2023/04/02 04:32:32;;;;;;;9.32;6.57;;;;;;;4.16;91.37;101760.75;6189240;23;20018;-75
2023/04/02 04:35:18;;;;;;;9.75;6.32;;;;;;;4.13;91.34;101762.25;6214194;23;20463;-74
2023/04/02 04:37:48;;;;;;;6.60;5.78;;;;;;;4.08;90.63;101775.78;6214745;23;20113;-74
2023/04/02 04:40:25;;;;;;;6.97;5.65;;;;;;;4.02;89.82;101771.97;6188701;23;20053;-74
2023/04/02 04:42:59;;;;;;;8.07;5.93;;;;;;;3.98;89.32;101782.53;6189051;23;20025;-74
2023/04/02 04:45:46;;;;;;;7.60;5.43;;;;;;;3.96;89.87;101784.03;6188808;23;20049;-74
2023/04/02 04:48:35;;;;;;;6.13;5.45;;;;;;;3.94;90.02;101781.75;6214014;23;20018;-75
2023/04/02 04:51:07;;;;;;;7.85;5.78;;;;;;;3.94;89.57;101800.19;6190822;23;20044;-74
2023/04/02 04:53:44;;;;;;;8.20;6.45;;;;;;;3.91;89.56;101800.16;6190713;23;20041;-74
2023/04/02 04:56:16;;;;;;;6.03;5.25;;;;;;;3.92;90.13;101809.59;6188441;23;20044;-75
2023/04/02 04:59:29;;;;;;;6.55;5.28;;;;;;;3.94;90.62;101823.91;6214462;23;20471;-74
2023/04/02 05:02:06;;;;;;;8.18;5.40;;;;;;;3.91;90.62;101818.59;6187273;23;20049;-75
2023/04/02 05:04:39;;;;;;;5.80;4.53;;;;;;;3.88;90.28;101827.25;6192282;23;20539;-74
2023/04/02 05:07:16;;;;;;;5.30;4.80;;;;;;;3.83;90.25;101830.22;6189070;23;20447;-75
2023/04/02 05:10:10;;;;;;;5.75;3.70;;;;;;;3.74;89.18;101841.06;6187042;23;20384;-76
2023/04/02 05:12:47;;;;;;;6.57;4.05;;;;;;;3.65;88.15;101843.25;6187845;23;20072;-77
2023/04/02 05:15:32;;;;;;;4.13;3.78;;;;;;;3.55;87.04;101849.97;6187371;23;20024;-75
2023/04/02 05:18:26;;;;;;;3.58;3.35;;;;;;;3.50;87.41;101857.44;6187003;23;20120;-75
2023/04/02 05:21:06;;;;;;;3.20;2.88;;;;;;;3.40;86.00;101861.47;6186604;23;20021;-75
2023/04/02 05:23:42;;;;;;;4.22;2.97;;;;;;;3.30;86.20;101875.28;6212124;23;20060;-74
2023/04/02 05:26:20;;;;;;;7.07;3.38;;;;;;;3.26;86.68;101880.53;6188695;23;20045;-75
2023/04/02 05:29:05;;;;;;;8.77;3.83;;;;;;;3.20;86.40;101883.88;6189273;23;20018;-74
2023/04/02 05:31:52;;;;;;;7.72;3.50;;;;;;;3.16;86.65;101896.97;6187217;23;20384;-75
2023/04/02 05:34:26;;;;;;;8.68;5.68;;;;;;;3.17;86.99;101889.84;6187487;23;20028;-74
2023/04/02 05:36:54;;;;;;;4.78;3.60;;;;;;;3.17;87.35;101900.38;6187702;23;20017;-74
2023/04/02 05:39:23;;;;;;;5.55;3.20;;;;;;;3.16;87.22;101904.13;6186664;23;20053;-74
2023/04/02 05:42:07;;;;;;;3.58;3.10;;;;;;;3.15;87.34;101911.25;6186963;23;20101;-75
2023/04/02 05:45:18;;;;;;;6.78;2.67;;;;;;;2.98;86.17;101922.31;6183741;23;20022;-74
2023/04/02 05:47:49;;;;;;;4.18;2.53;;;;;;;2.93;86.59;101925.25;6189206;23;20020;-74
2023/04/02 05:50:20;;;;;;;5.47;2.85;;;;;;;2.87;86.11;101932.72;6186837;23;20104;-74
2023/04/02 05:53:02;;;;;;;5.45;2.72;;;;;;;2.83;85.92;101939.78;6186806;23;20022;-74
2023/04/02 05:55:42;;;;;;;7.18;2.80;;;;;;;2.83;85.88;101941.66;6187092;23;20028;-74
2023/04/02 05:58:20;;;;;;;3.38;2.47;;;;;;;2.83;85.92;101952.19;6188070;23;20089;-74
2023/04/02 06:01:14;;;;;;;5.72;2.08;;;;;;;2.82;85.76;101961.94;6186701;23;20024;-75
2023/04/02 06:03:49;;;;;;;2.95;2.20;;;;;;;2.81;84.82;101962.31;6187550;23;20305;-75
2023/04/02 06:06:44;;;;;;;2.63;2.20;;;;;;;2.72;85.15;101972.34;6161995;23;20467;-74
2023/04/02 06:09:36;;;;;;;3.25;2.05;;;;;;;2.71;85.31;101982.09;6186375;23;20022;-74
2023/04/02 06:12:25;;;;;;;10.13;2.55;;;;;;;2.74;85.44;101989.28;6186705;23;20021;-75
2023/04/02 06:14:52;;;;;;;4.40;2.60;;;;;;;2.73;85.28;102005.41;6186660;23;20028;-74
2023/04/02 06:17:21;;;;;;;4.20;2.17;;;;;;;2.67;85.11;102007.59;6187110;23;20013;-75
2023/04/02 06:19:50;;;;;;;4.35;2.70;;;;;;;2.65;84.78;102015.81;6189526;23;20100;-75
2023/04/02 06:22:34;;;;;;;5.18;2.60;;;;;;;2.67;85.08;102023.38;6187450;23;20498;-74
2023/04/02 06:25:26;;;;;;;5.20;3.05;;;;;;;2.66;84.97;102032.38;6187923;23;20045;-74
2023/04/02 06:27:57;;;;;;;4.57;2.80;;;;;;;2.66;85.07;102029.72;6187882;23;20021;-74
2023/04/02 06:30:29;;;;;;;5.63;3.25;;;;;;;2.67;85.27;102039.91;6189160;23;20359;-74
2023/04/02 06:32:56;;;;;;;5.72;3.03;;;;;;;2.66;85.54;102040.25;6187807;23;20033;-74
2023/04/02 06:35:24;;;;;;;3.78;3.28;;;;;;;2.65;85.01;102047.38;6186446;23;20022;-74
2023/04/02 06:38:01;;;;;;;4.53;3.30;;;;;;;2.71;84.99;102049.72;6187464;23;20467;-74
2023/04/02 06:40:51;;;;;;;4.25;3.75;;;;;;;2.72;85.37;102052.00;6187381;23;20053;-75
2023/04/02 06:43:34;;;;;;;2.75;2.55;;;;;;;2.77;84.93;102058.81;6186956;23;20068;-75
2023/04/02 06:46:27;;;;;;;3.47;3.05;;;;;;;2.76;85.11;102060.69;6187562;23;20049;-74
2023/04/02 06:49:13;;;;;;;3.35;2.97;;;;;;;2.76;84.22;102073.09;6186977;23;20456;-74
2023/04/02 06:51:43;;;;;;;5.97;2.97;;;;;;;2.75;84.51;102080.22;6189413;23;20384;-74
2023/04/02 06:54:14;;;;;;;4.40;3.50;;;;;;;2.75;84.75;102077.59;6189078;23;20013;-75
2023/04/02 06:56:51;;;;;;;6.20;3.80;;;;;;;2.81;85.14;102085.91;6187817;23;20021;-74
2023/04/02 06:59:34;;;;;;;6.55;4.38;;;;;;;2.85;85.08;102094.63;6187272;23;20145;-75
2023/04/02 07:02:14;;;;;;;4.07;3.40;;;;;;;2.88;85.10;102099.94;6187512;23;20096;-74
2023/04/02 07:04:41;;;;;;;4.20;3.80;;;;;;;2.87;84.78;102101.03;6187437;23;20100;-74
2023/04/02 07:07:09;;;;;;;9.02;4.32;;;;;;;2.85;84.87;102115.66;6189384;23;20045;-75
2023/04/02 07:09:39;;;;;;;7.82;4.20;;;;;;;2.90;85.56;102110.09;6187883;23;20061;-76
2023/04/02 07:12:11;;;;;;;4.07;3.70;;;;;;;2.93;85.15;102118.03;6187356;23;20035;-74
2023/04/02 07:14:38;;;;;;;4.50;4.20;;;;;;;2.95;85.18;102128.97;6212669;23;20191;-76
2023/04/02 07:17:05;;;;;;;5.00;4.18;;;;;;;3.00;85.18;102125.28;6187396;23;20025;-74
2023/04/02 07:19:31;;;;;;;6.50;4.20;;;;;;;2.98;85.04;102130.91;6211788;23;20434;-76
2023/04/02 07:21:59;;;;;;;5.57;4.03;;;;;;;3.07;85.32;102141.19;6189315;23;20484;-76
2023/04/02 07:24:32;;;;;;;5.65;4.32;;;;;;;3.06;85.21;102144.16;6187145;23;20014;-76
2023/04/02 07:26:58;;;;;;;5.38;4.82;;;;;;;3.05;85.57;102150.53;6188887;23;20025;-76
2023/04/02 07:29:25;;;;;;;4.88;4.38;;;;;;;3.13;85.07;102163.47;6187625;23;20018;-76
2023/04/02 07:31:52;;;;;;;9.05;4.60;;;;;;;3.06;85.17;102173.88;6187338;23;20048;-76
2023/04/02 07:34:19;;;;;;;5.07;3.30;;;;;;;3.03;84.98;102171.94;6188460;23;20024;-76
2023/04/02 07:36:45;;;;;;;4.60;4.20;;;;;;;3.03;85.17;102176.44;6189196;23;20494;-76
2023/04/02 07:39:12;;;;;;;7.38;4.25;;;;;;;3.10;84.75;102185.22;6189551;23;20204;-76
2023/04/02 07:41:53;;;;;;;6.68;4.60;;;;;;;3.04;84.99;102184.00;6188674;23;20021;-76
2023/04/02 07:44:19;;;;;;;6.45;4.50;;;;;;;3.07;84.79;102193.06;6188854;23;20474;-76
2023/04/02 07:46:46;;;;;;;5.18;4.47;;;;;;;3.12;85.17;102190.13;6189000;23;20446;-76
2023/04/02 07:49:12;;;;;;;6.05;4.25;;;;;;;3.16;84.86;102194.34;6186046;23;20052;-76
2023/04/02 07:51:39;;;;;;;4.50;4.10;;;;;;;3.21;85.38;102188.75;6188944;23;20009;-77
2023/04/02 07:54:06;;;;;;;4.70;4.30;;;;;;;3.26;85.32;102195.59;6189374;23;20054;-76
2023/04/02 07:56:33;;;;;;;5.22;4.70;;;;;;;3.24;84.71;102195.94;6188721;23;20217;-76
2023/04/02 07:58:59;;;;;;;5.32;4.65;;;;;;;3.22;85.04;102203.44;6188961;23;20022;-76
2023/04/02 08:01:26;;;;;;;5.78;3.58;;;;;;;3.21;84.07;102207.16;6188053;23;20085;-76
2023/04/02 08:03:54;;;;;;;5.10;4.70;;;;;;;3.16;84.30;102204.84;6189110;23;20084;-76
2023/04/02 08:06:22;;;;;;;4.88;4.47;;;;;;;3.20;84.45;102213.53;6188710;23;20075;-77
2023/04/02 08:08:49;;;;;;;5.82;4.30;;;;;;;3.26;84.66;102216.63;6188640;23;20017;-76
2023/04/02 08:11:16;;;;;;;4.60;4.22;;;;;;;3.32;84.59;102223.13;6188776;23;20017;-76
2023/04/02 08:13:43;;;;;;;6.40;5.18;;;;;;;3.36;84.70;102226.56;6188874;23;20084;-77
2023/04/02 08:16:09;;;;;;;5.75;4.55;;;;;;;3.42;84.53;102225.16;6187557;23;20108;-74
2023/04/02 08:18:36;;;;;;;5.10;4.60;;;;;;;3.39;83.94;102235.66;6212172;23;20025;-76
2023/04/02 08:21:08;;;;;;;5.03;4.53;;;;;;;3.34;83.73;102240.09;6188283;23;20183;-77
2023/04/02 08:23:35;;;;;;;6.07;5.47;;;;;;;3.34;83.73;102241.97;6188983;23;20321;-76
2023/04/02 08:26:03;;;;;;;11.80;5.20;;;;;;;3.39;83.72;102248.81;6211653;23;20080;-76
2023/04/02 08:28:30;;;;;;;7.90;5.28;;;;;;;3.44;83.56;102251.91;6189052;23;20484;-76
2023/04/02 08:30:56;;;;;;;5.82;5.20;;;;;;;3.50;83.13;102260.25;6188337;23;20017;-77
2023/04/02 08:33:23;;;;;;;5.45;4.95;;;;;;;3.45;82.79;102265.81;6188560;23;20056;-76
2023/04/02 08:35:50;;;;;;;4.82;3.92;;;;;;;3.53;81.89;102275.34;6188508;23;20018;-76
2023/04/02 08:38:18;;;;;;;9.25;4.20;;;;;;;3.52;80.96;102284.38;6186476;23;20113;-76
2023/04/02 08:40:49;;;;;;;7.22;4.28;;;;;;;3.55;81.00;102281.03;6188463;23;20017;-76
2023/04/02 08:43:36;;;;;;;4.10;3.80;;;;;;;3.48;80.76;102289.59;6189254;23;20470;-76
2023/04/02 08:46:23;;;;;;;4.10;3.70;;;;;;;3.60;80.99;102285.97;6189547;23;20135;-77
2023/04/02 08:48:54;;;;;;;4.85;4.18;;;;;;;3.56;81.04;102296.47;6190134;23;20056;-76
2023/04/02 08:51:24;;;;;;;8.75;4.75;;;;;;;3.61;80.59;102293.53;6189651;23;20460;-76
2023/04/02 08:53:54;;;;;;;5.85;4.45;;;;;;;3.64;80.09;102303.34;6190218;23;20037;-76
2023/04/02 08:56:35;;;;;;;7.47;4.35;;;;;;;3.64;80.76;102315.75;6187691;23;20073;-76
2023/04/02 08:59:26;;;;;;;7.05;4.13;;;;;;;3.70;80.15;102319.63;6189908;23;20018;-76
2023/04/02 09:02:17;;;;;;;6.47;3.97;;;;;;;3.67;80.63;102323.72;6190257;23;20034;-76
2023/04/02 09:04:44;;;;;;;3.97;3.67;;;;;;;3.71;79.75;102329.03;6188478;23;20017;-78
2023/04/02 09:07:14;;;;;;;6.15;3.33;;;;;;;3.67;79.34;102330.84;6189294;23;20017;-76
2023/04/02 09:09:42;;;;;;;71.60;39.42;;;;;;;3.62;80.10;102331.91;6188080;23;20013;-76
2023/04/02 09:12:19;;;;;;;7.13;4.00;;;;;;;3.69;79.54;102332.03;6188849;23;20014;-77
2023/04/02 09:15:09;;;;;;;7.13;3.72;;;;;;;3.72;80.10;102345.59;6188907;23;20426;-75
2023/04/02 09:17:38;;;;;;;5.22;3.13;;;;;;;3.76;79.51;102349.81;6190316;23;20040;-75
2023/04/02 09:20:23;;;;;;;6.28;3.40;;;;;;;3.88;78.98;102351.50;6189670;23;20467;-75
2023/04/02 09:22:51;;;;;;;6.68;2.97;;;;;;;3.95;79.06;102351.63;6189980;23;20020;-75
2023/04/02 09:25:32;;;;;;;3.30;2.80;;;;;;;4.09;78.87;102357.06;6189495;23;20025;-75
2023/04/02 09:28:01;;;;;;;6.82;3.17;;;;;;;4.21;77.25;102364.03;6189895;23;20022;-76
2023/04/02 09:30:30;;;;;;;5.63;2.63;;;;;;;4.27;77.35;102368.63;6189961;23;20048;-77
2023/04/02 09:33:06;;;;;;;3.80;2.83;;;;;;;4.32;77.06;102381.50;6188401;23;20036;-75
2023/04/02 09:35:35;;;;;;;3.35;2.90;;;;;;;4.34;76.95;102378.53;6189796;23;20024;-76
2023/04/02 09:38:23;;;;;;;6.78;3.22;;;;;;;4.42;77.12;102387.28;6189922;23;20474;-75
2023/04/02 09:40:55;;;;;;;5.63;2.50;;;;;;;4.53;75.68;102377.63;6213527;23;20569;-75
2023/04/02 09:43:22;;;;;;;4.45;2.70;;;;;;;4.53;75.22;102383.66;6187759;23;20069;-78
2023/04/02 09:45:59;;;;;;;3.22;2.92;;;;;;;4.50;75.65;102388.88;6189925;23;20049;-76
2023/04/02 09:48:40;;;;;;;3.40;2.78;;;;;;;4.35;75.94;102382.69;6190796;23;20021;-75
2023/04/02 09:51:14;;;;;;;3.63;3.08;;;;;;;4.47;76.14;102384.31;6189852;23;20013;-75
2023/04/02 09:53:49;;;;;;;6.85;2.75;;;;;;;4.57;75.38;102381.84;6188321;23;20013;-75
2023/04/02 09:56:25;;;;;;;2.92;2.42;;;;;;;4.66;75.83;102377.06;6189236;23;20016;-76
2023/04/02 09:59:21;;;;;;;5.32;2.65;;;;;;;4.98;76.18;102382.69;6189234;23;20029;-75
2023/04/02 10:01:59;;;;;;;2.65;2.45;;;;;;;5.26;75.14;102397.28;6176625;23;20114;-76
2023/04/02 10:04:45;;;;;;;4.90;2.25;;;;;;;5.38;74.44;102397.03;6190814;23;20444;-78
2023/04/02 10:07:36;;;;;;;3.13;2.65;;;;;;;5.71;73.21;102401.47;6189405;23;20014;-77
2023/04/02 10:10:27;;;;;;;2.83;2.05;;;;;;;5.85;72.67;102398.97;6190067;23;20018;-75
2023/04/02 10:13:21;;;;;;;3.10;2.00;;;;;;;5.98;71.44;102407.41;6189265;23;20014;-76
2023/04/02 10:15:58;;;;;;;2.53;1.70;;;;;;;5.90;69.67;102426.97;6189969;23;20430;-76
2023/04/02 10:18:47;;;;;;;3.95;2.08;;;;;;;6.10;70.49;102422.94;6189512;23;20017;-78
2023/04/02 10:21:22;;;;;;;2.30;2.10;;;;;;;6.25;69.17;102421.94;6191074;23;20025;-76
2023/04/02 10:23:49;;;;;;;3.63;2.00;;;;;;;6.50;67.74;102432.63;6189768;23;20092;-76
2023/04/02 10:26:37;;;;;;;2.85;2.00;;;;;;;6.59;68.39;102419.09;6189460;23;20466;-75
2023/04/02 10:29:26;;;;;;;2.67;2.10;;;;;;;6.58;67.02;102413.03;6189649;23;20324;-76
2023/04/02 10:32:17;;;;;;;2.65;1.90;;;;;;;6.71;68.18;102426.72;6189807;23;20408;-76
2023/04/02 10:34:53;;;;;;;2.88;2.00;;;;;;;6.88;66.64;102420.72;6189949;23;20013;-76
2023/04/02 10:37:22;;;;;;;4.82;2.10;;;;;;;6.91;65.83;102425.25;6190425;23;20108;-78
2023/04/02 10:39:55;;;;;;;4.32;2.03;;;;;;;7.03;65.47;102424.94;6189594;23;20052;-76
2023/04/02 10:42:36;;;;;;;4.13;2.55;;;;;;;7.05;65.55;102434.41;6188579;23;20077;-76
2023/04/02 10:45:30;;;;;;;4.47;2.38;;;;;;;7.12;66.05;102431.78;6189784;23;20455;-77
2023/04/02 10:48:29;;;;;;;3.50;2.15;;;;;;;7.07;64.72;102435.53;6189721;23;20089;-76
2023/04/02 10:51:19;;;;;;;5.07;2.50;;;;;;;6.92;64.72;102432.06;6189286;23;20438;-77
2023/04/02 10:53:57;;;;;;;6.35;2.60;;;;;;;7.01;63.29;102434.38;6190032;23;20022;-76
2023/04/02 10:56:25;;;;;;;2.50;2.40;;;;;;;7.01;62.18;102432.50;6188616;23;20017;-76
2023/04/02 10:59:01;;;;;;;3.60;2.40;;;;;;;7.10;62.98;102434.78;6189359;23;20051;-76
2023/04/02 11:01:29;;;;;;;4.43;2.70;;;;;;;7.12;61.82;102432.53;6189136;23;20021;-76
2023/04/02 11:04:04;;;;;;;6.07;2.47;;;;;;;7.18;61.85;102446.94;6189474;23;20022;-76
2023/04/02 11:06:45;;;;;;;3.15;2.55;;;;;;;7.19;61.78;102450.34;6188365;23;20447;-75
2023/04/02 11:09:19;;;;;;;4.07;2.70;;;;;;;7.21;61.97;102451.47;6189582;23;20049;-75
2023/04/02 11:11:50;;;;;;;3.63;2.53;;;;;;;7.29;61.82;102454.88;6189019;23;20021;-76
2023/04/02 11:14:24;;;;;;;2.88;2.65;;;;;;;7.35;60.75;102448.84;6189079;23;20017;-76
2023/04/02 11:16:53;;;;;;;3.33;2.55;;;;;;;7.46;61.26;102453.41;6187992;23;20024;-78
2023/04/02 11:19:25;;;;;;;2.53;2.22;;;;;;;7.46;60.84;102456.81;6188656;23;20025;-76
2023/04/02 11:21:53;;;;;;;4.72;2.33;;;;;;;7.40;60.62;102463.63;6189382;23;20013;-75
2023/04/02 11:24:30;;;;;;;4.22;2.92;;;;;;;7.31;60.14;102466.63;6188883;23;20443;-77
2023/04/02 11:27:30;;;;;;;4.40;2.10;;;;;;;7.32;60.44;102459.44;6189433;23;20017;-76
2023/04/02 11:30:15;;;;;;;3.58;2.58;;;;;;;7.47;60.50;102461.00;6170809;23;20017;-76
2023/04/02 11:32:44;;;;;;;2.55;2.35;;;;;;;7.53;59.37;102469.34;6189568;23;20171;-75
2023/04/02 11:35:29;;;;;;;2.72;2.28;;;;;;;7.59;60.54;102487.16;6188870;23;20029;-75
2023/04/02 11:38:04;;;;;;;5.95;2.17;;;;;;;7.57;59.79;102488.66;6187358;23;20366;-76
2023/04/02 11:40:54;;;;;;;5.97;2.30;;;;;;;7.52;60.71;102483.72;6188608;23;20022;-76
2023/04/02 11:43:32;;;;;;;3.30;2.60;;;;;;;7.60;59.59;102480.69;6188849;23;20045;-76
2023/04/02 11:46:00;;;;;;;3.58;2.58;;;;;;;7.72;59.70;102492.81;6189135;23;20017;-75
2023/04/02 11:48:36;;;;;;;4.15;2.60;;;;;;;7.83;60.33;102492.84;6187394;23;20024;-74
2023/04/02 11:51:23;;;;;;;5.05;2.35;;;;;;;7.89;59.96;102486.03;6189276;23;20387;-75
2023/04/02 11:53:57;;;;;;;6.18;2.70;;;;;;;7.93;59.49;102492.88;6187217;23;20387;-76
2023/04/02 11:56:50;;;;;;;2.70;2.50;;;;;;;7.97;59.45;102495.53;6213151;23;20395;-76
2023/04/02 11:59:35;;;;;;;3.40;3.10;;;;;;;8.06;59.65;102500.44;6188540;23;20053;-75
2023/04/02 12:02:39;;;;;;;7.15;2.38;;;;;;;8.03;59.99;102504.59;6189209;23;20042;-76
2023/04/02 12:05:35;;;;;;;4.40;3.10;;;;;;;8.07;58.31;102493.97;6188922;23;20020;-75
2023/04/02 12:08:38;;;;;;;3.70;2.70;;;;;;;8.02;57.83;102509.13;6188369;23;20048;-76
2023/04/02 12:11:34;;;;;;;2.97;2.67;;;;;;;7.93;58.20;102503.47;6189216;23;20024;-76
2023/04/02 12:14:25;;;;;;;3.28;2.88;;;;;;;8.03;58.50;102515.97;6188930;23;20013;-76
2023/04/02 12:16:52;;;;;;;3.25;2.45;;;;;;;8.17;58.24;102499.28;6189135;23;20017;-76